Time;durP1;ratioP1;P1;durP2;ratioP2;P2;SDS_P1;SDS_P2;PMS_P1;PMS_P2;Temp;Humidity;BMP_temperature;BMP_pressure;BME280_temperature;BME280_humidity;BME280_pressure;Samples;Min_cycle;Max_cycle;Signal;HPM_P1;HPM_P2
2023/11/27 00:02:20;;;;;;;54.88;32.90;;;;;;;-1.20;100.00;95900.25;5026924;28;20026;-65
2023/11/27 00:04:46;;;;;;;50.78;31.63;;;;;;;-1.21;100.00;95882.22;5023263;28;20410;-65
2023/11/27 00:07:11;;;;;;;48.85;29.70;;;;;;;-1.19;100.00;95885.59;5025352;28;20030;-65
2023/11/27 00:09:37;;;;;;;40.20;24.77;;;;;;;-1.16;100.00;95893.19;5024060;28;20037;-65
2023/11/27 00:12:02;;;;;;;38.25;25.30;;;;;;;-1.17;100.00;95884.63;5027190;28;20056;-65
2023/11/27 00:14:29;;;;;;;40.72;26.15;;;;;;;-1.20;100.00;95884.75;5021653;28;20546;-65
2023/11/27 00:16:54;;;;;;;37.17;22.52;;;;;;;-1.18;100.00;95889.84;5018983;28;20037;-65
2023/11/27 00:19:19;;;;;;;27.13;19.33;;;;;;;-1.16;100.00;95886.31;5019817;28;20431;-65
2023/11/27 00:21:45;;;;;;;35.10;20.40;;;;;;;-1.16;100.00;95888.03;5023430;28;20026;-65
2023/11/27 00:24:10;;;;;;;26.05;18.23;;;;;;;-1.18;100.00;95882.09;5039800;28;20108;-65
2023/11/27 00:26:35;;;;;;;29.65;20.17;;;;;;;-1.19;100.00;95886.44;5023281;28;20167;-65
2023/11/27 00:29:01;;;;;;;27.42;17.60;;;;;;;-1.17;100.00;95888.94;5027962;28;20083;-65
2023/11/27 00:31:27;;;;;;;27.42;17.48;;;;;;;-1.16;100.00;95878.56;5025810;28;20025;-65
2023/11/27 00:33:52;;;;;;;26.88;19.45;;;;;;;-1.16;100.00;95875.97;5025800;28;20057;-65
2023/11/27 00:36:18;;;;;;;28.75;18.48;;;;;;;-1.09;100.00;95875.69;5030302;28;20053;-65
2023/11/27 00:38:43;;;;;;;59.00;31.55;;;;;;;-1.09;100.00;95883.44;5030333;28;20395;-64
2023/11/27 00:41:14;;;;;;;91.88;44.95;;;;;;;-1.11;100.00;95877.50;5029970;28;20033;-64
2023/11/27 00:43:41;;;;;;;43.83;26.17;;;;;;;-1.10;100.00;95871.44;5022926;28;20030;-64
2023/11/27 00:46:07;;;;;;;30.42;20.20;;;;;;;-1.07;100.00;95873.88;5024922;28;20490;-65
2023/11/27 00:48:33;;;;;;;35.83;22.45;;;;;;;-1.08;100.00;95883.41;5026117;28;20026;-64
2023/11/27 00:50:58;;;;;;;25.25;16.48;;;;;;;-1.08;100.00;95872.22;5029586;28;20036;-65
2023/11/27 00:53:24;;;;;;;29.98;20.45;;;;;;;-1.05;100.00;95872.06;5030956;28;20072;-64
2023/11/27 00:55:49;;;;;;;48.90;28.38;;;;;;;-1.05;100.00;95865.16;5029377;28;20491;-64
2023/11/27 00:58:15;;;;;;;41.38;21.42;;;;;;;-1.01;100.00;95863.28;5025165;28;20038;-65
2023/11/27 01:00:40;;;;;;;28.55;17.05;;;;;;;-1.02;100.00;95862.44;5026349;28;20040;-64
2023/11/27 01:03:06;;;;;;;30.50;17.73;;;;;;;-0.99;100.00;95865.81;5026232;28;20153;-64
2023/11/27 01:05:32;;;;;;;33.78;19.60;;;;;;;-0.95;100.00;95862.16;5028315;28;20030;-65
2023/11/27 01:07:58;;;;;;;37.33;20.77;;;;;;;-0.93;100.00;95858.63;5025372;28;20029;-64
2023/11/27 01:10:23;;;;;;;34.58;18.80;;;;;;;-0.92;100.00;95870.63;5023421;28;20052;-64
2023/11/27 01:12:49;;;;;;;35.80;21.60;;;;;;;-0.93;100.00;95871.56;5026617;28;20061;-64
2023/11/27 01:15:16;;;;;;;39.90;22.35;;;;;;;-0.93;100.00;95868.09;5033064;28;20017;-64
2023/11/27 01:17:41;;;;;;;35.60;23.48;;;;;;;-0.94;100.00;95859.53;5024545;28;20017;-64
2023/11/27 01:20:08;;;;;;;35.13;22.48;;;;;;;-0.93;100.00;95862.94;5024611;28;20026;-64
2023/11/27 01:22:37;;;;;;;27.95;18.27;;;;;;;-0.91;100.00;95859.41;5022659;28;20037;-64
2023/11/27 01:25:04;;;;;;;30.20;18.08;;;;;;;-0.90;100.00;95849.88;5026679;28;20085;-64
2023/11/27 01:27:30;;;;;;;24.33;16.98;;;;;;;-0.93;100.00;95856.03;5027316;28;20025;-64
2023/11/27 01:29:56;;;;;;;23.08;15.93;;;;;;;-0.90;100.00;95848.16;5031879;28;20033;-64
2023/11/27 01:32:24;;;;;;;21.65;14.48;;;;;;;-0.85;100.00;95841.94;5024972;28;20022;-64
2023/11/27 01:34:50;;;;;;;20.80;15.93;;;;;;;-0.85;100.00;95836.75;5028496;28;20044;-64
2023/11/27 01:37:16;;;;;;;22.63;16.15;;;;;;;-0.85;100.00;95831.59;5025796;28;20025;-64
2023/11/27 01:39:41;;;;;;;22.58;15.27;;;;;;;-0.89;100.00;95839.47;5026525;28;20028;-64
2023/11/27 01:42:07;;;;;;;21.10;14.82;;;;;;;-0.90;100.00;95824.88;5029141;28;20033;-67
2023/11/27 01:44:32;;;;;;;22.08;15.38;;;;;;;-0.87;100.00;95827.31;5042146;28;20038;-64
2023/11/27 01:46:58;;;;;;;17.95;13.38;;;;;;;-0.81;100.00;95822.78;5025984;28;20033;-65
2023/11/27 01:49:24;;;;;;;17.95;13.43;;;;;;;-0.80;100.00;95822.72;5034844;28;20033;-64
2023/11/27 01:51:50;;;;;;;22.33;14.90;;;;;;;-0.83;100.00;95820.28;5024372;28;20096;-64
2023/11/27 01:54:15;;;;;;;18.77;14.27;;;;;;;-0.85;100.00;95811.75;5038815;28;20029;-64
2023/11/27 01:56:46;;;;;;;22.23;14.10;;;;;;;-0.89;100.00;95811.03;5029607;28;20018;-64
2023/11/27 01:59:11;;;;;;;19.55;13.43;;;;;;;-0.76;100.00;95820.84;5027190;28;20387;-64
2023/11/27 02:01:37;;;;;;;21.30;13.15;;;;;;;-0.81;100.00;95815.88;5027513;28;20026;-65
2023/11/27 02:04:03;;;;;;;15.48;12.05;;;;;;;-0.78;100.00;95809.72;5026660;28;20575;-64
2023/11/27 02:06:28;;;;;;;18.05;12.75;;;;;;;-0.81;100.00;95807.25;5025748;28;20030;-64
2023/11/27 02:08:56;;;;;;;18.58;12.50;;;;;;;-0.80;100.00;95808.94;5026090;28;20059;-64
2023/11/27 02:11:27;;;;;;;14.27;12.60;;;;;;;-0.81;100.00;95800.38;5022189;28;20037;-64
2023/11/27 02:13:53;;;;;;;16.38;12.15;;;;;;;-0.78;100.00;95786.44;5020442;28;20072;-64
2023/11/27 02:16:18;;;;;;;16.38;12.23;;;;;;;-0.77;100.00;95788.97;5026245;28;20022;-64
2023/11/27 02:18:44;;;;;;;16.02;12.48;;;;;;;-0.78;100.00;95778.69;5033075;28;20097;-64
2023/11/27 02:21:11;;;;;;;14.77;11.85;;;;;;;-0.78;100.00;95783.84;5021009;28;20401;-65
2023/11/27 02:23:37;;;;;;;15.40;11.48;;;;;;;-0.80;100.00;95778.78;5029349;28;20037;-64
2023/11/27 02:26:04;;;;;;;14.50;12.02;;;;;;;-0.78;100.00;95776.94;5029558;28;20041;-64
2023/11/27 02:28:29;;;;;;;15.50;11.48;;;;;;;-0.77;100.00;95777.81;5030315;28;20056;-64
2023/11/27 02:30:54;;;;;;;14.98;12.00;;;;;;;-0.75;100.00;95781.16;5024260;28;20037;-64
2023/11/27 02:33:21;;;;;;;17.90;11.10;;;;;;;-0.76;100.00;95772.53;5003666;28;20104;-64
2023/11/27 02:35:47;;;;;;;14.48;11.82;;;;;;;-0.77;100.00;95778.63;5032792;28;20407;-65
2023/11/27 02:38:12;;;;;;;19.67;12.05;;;;;;;-0.78;100.00;95771.78;5031115;28;20021;-65
2023/11/27 02:40:38;;;;;;;13.48;11.40;;;;;;;-0.76;100.00;95767.38;5026726;28;20030;-64
2023/11/27 02:43:03;;;;;;;14.35;10.88;;;;;;;-0.74;100.00;95775.06;5031496;28;20489;-64
2023/11/27 02:45:29;;;;;;;14.52;10.55;;;;;;;-0.75;100.00;95763.88;5028629;28;20021;-64
2023/11/27 02:47:55;;;;;;;14.23;8.90;;;;;;;-0.76;100.00;95769.13;5022427;28;20108;-64
2023/11/27 02:50:21;;;;;;;13.18;9.27;;;;;;;-0.74;100.00;95762.97;5024539;28;20113;-64
2023/11/27 02:52:46;;;;;;;12.52;9.25;;;;;;;-0.74;100.00;95764.72;5028475;28;20491;-64
2023/11/27 02:55:12;;;;;;;11.38;9.05;;;;;;;-0.72;100.00;95765.50;5026910;28;20109;-64
2023/11/27 02:57:37;;;;;;;11.65;9.00;;;;;;;-0.67;100.00;95760.09;5023009;28;20050;-64
2023/11/27 03:00:05;;;;;;;12.88;9.90;;;;;;;-0.68;100.00;95759.25;5030855;28;20091;-64
2023/11/27 03:02:34;;;;;;;12.45;9.27;;;;;;;-0.69;100.00;95752.41;5024737;28;20095;-64
2023/11/27 03:05:00;;;;;;;12.15;9.07;;;;;;;-0.73;100.00;95748.31;5024671;28;20025;-64
2023/11/27 03:07:25;;;;;;;16.30;9.85;;;;;;;-0.72;100.00;95752.56;5029756;28;20040;-64
2023/11/27 03:09:50;;;;;;;11.75;9.23;;;;;;;-0.74;100.00;95747.44;5030014;28;20486;-64
2023/11/27 03:12:16;;;;;;;10.25;8.88;;;;;;;-0.72;100.00;95762.91;5021271;28;20475;-64
2023/11/27 03:14:41;;;;;;;14.82;10.30;;;;;;;-0.72;100.00;95749.97;5029498;28;20025;-64
2023/11/27 03:17:07;;;;;;;13.02;11.13;;;;;;;-0.72;100.00;95750.81;5026279;28;20055;-64
2023/11/27 03:19:37;;;;;;;17.65;11.88;;;;;;;-0.71;100.00;95746.47;5024123;28;20025;-64
2023/11/27 03:22:02;;;;;;;14.20;12.18;;;;;;;-0.71;100.00;95741.31;5028517;28;20041;-64
2023/11/27 03:24:28;;;;;;;16.05;11.88;;;;;;;-0.68;100.00;95741.16;5026536;28;20018;-64
2023/11/27 03:26:53;;;;;;;17.23;12.38;;;;;;;-0.67;100.00;95742.00;5029520;28;20040;-64
2023/11/27 03:29:18;;;;;;;14.07;11.43;;;;;;;-0.69;100.00;95734.31;5026266;28;20111;-65
2023/11/27 03:31:44;;;;;;;15.80;11.55;;;;;;;-0.68;100.00;95740.31;5025805;28;20455;-64
2023/11/27 03:34:09;;;;;;;76.75;45.63;;;;;;;-0.69;100.00;95729.16;5022538;28;20029;-65
2023/11/27 03:36:34;;;;;;;116.63;66.45;;;;;;;-0.69;100.00;95733.47;5028336;28;20013;-64
2023/11/27 03:39:00;;;;;;;65.88;40.17;;;;;;;-0.70;100.00;95736.97;5026689;28;20057;-64
2023/11/27 03:41:25;;;;;;;37.15;24.00;;;;;;;-0.70;100.00;95736.97;5029825;28;20025;-64
2023/11/27 03:43:51;;;;;;;29.45;17.52;;;;;;;-0.70;100.00;95732.66;5031222;28;20097;-64
2023/11/27 03:46:16;;;;;;;14.68;13.13;;;;;;;-0.67;100.00;95734.22;5025418;28;20034;-64
2023/11/27 03:48:42;;;;;;;16.10;12.35;;;;;;;-0.65;100.00;95730.69;5027331;28;20028;-64
2023/11/27 03:51:08;;;;;;;23.38;16.13;;;;;;;-0.65;100.00;95737.59;5039353;28;20022;-64
2023/11/27 03:53:34;;;;;;;37.75;21.58;;;;;;;-0.64;100.00;95742.69;5022822;28;20027;-64
2023/11/27 03:56:00;;;;;;;47.28;23.98;;;;;;;-0.65;100.00;95735.84;5021397;28;20013;-64
2023/11/27 03:58:26;;;;;;;33.47;21.83;;;;;;;-0.65;100.00;95735.84;5026990;28;20026;-64
2023/11/27 04:00:52;;;;;;;28.58;18.50;;;;;;;-0.64;100.00;95740.09;5028421;28;20104;-64
2023/11/27 04:03:18;;;;;;;20.42;14.60;;;;;;;-0.65;100.00;95730.69;5023180;28;20021;-64
2023/11/27 04:05:44;;;;;;;20.40;14.32;;;;;;;-0.65;100.00;95728.09;5030046;28;20026;-64
2023/11/27 04:08:09;;;;;;;19.15;14.07;;;;;;;-0.67;100.00;95729.91;5029513;28;20062;-64
2023/11/27 04:10:35;;;;;;;19.17;14.52;;;;;;;-0.68;100.00;95732.56;5029647;28;20028;-64
2023/11/27 04:13:00;;;;;;;22.60;13.85;;;;;;;-0.67;100.00;95727.31;5025972;28;20532;-65
2023/11/27 04:15:25;;;;;;;15.15;11.77;;;;;;;-0.68;100.00;95725.66;5025762;28;20030;-65
2023/11/27 04:17:51;;;;;;;15.45;12.35;;;;;;;-0.67;100.00;95711.81;5028139;28;20026;-64
2023/11/27 04:20:16;;;;;;;14.07;11.40;;;;;;;-0.67;100.00;95710.94;5026640;28;20101;-65
2023/11/27 04:22:46;;;;;;;16.92;11.73;;;;;;;-0.68;100.00;95707.53;5025902;28;20025;-64
2023/11/27 04:25:11;;;;;;;14.02;10.88;;;;;;;-0.66;100.00;95710.91;5034648;28;20029;-64
2023/11/27 04:27:37;;;;;;;14.85;11.15;;;;;;;-0.66;100.00;95708.31;5031972;28;20058;-64
2023/11/27 04:30:05;;;;;;;13.65;10.70;;;;;;;-0.64;100.00;95711.66;5031968;28;20053;-64
2023/11/27 04:32:31;;;;;;;12.75;11.43;;;;;;;-0.66;100.00;95718.66;5028628;28;20036;-64
2023/11/27 04:34:56;;;;;;;13.43;12.05;;;;;;;-0.70;100.00;95718.84;5030844;28;20037;-65
2023/11/27 04:37:21;;;;;;;15.45;12.40;;;;;;;-0.73;100.00;95712.09;5031455;28;20045;-64
2023/11/27 04:39:47;;;;;;;16.88;13.55;;;;;;;-0.70;100.00;95705.94;5025225;28;20029;-64
2023/11/27 04:42:12;;;;;;;15.57;13.07;;;;;;;-0.74;100.00;95703.50;5032238;28;20029;-64
2023/11/27 04:44:39;;;;;;;14.85;13.15;;;;;;;-0.76;100.00;95704.50;5036545;28;20064;-64
2023/11/27 04:47:05;;;;;;;17.75;16.15;;;;;;;-0.75;100.00;95704.41;5024733;28;20129;-64
2023/11/27 04:49:31;;;;;;;15.90;13.52;;;;;;;-0.77;100.00;95710.59;5032681;28;20638;-65
2023/11/27 04:51:56;;;;;;;19.60;13.68;;;;;;;-0.78;100.00;95699.38;5028101;28;20217;-64
2023/11/27 04:54:22;;;;;;;16.13;12.85;;;;;;;-0.74;100.00;95700.09;5029008;28;20053;-64
2023/11/27 04:56:47;;;;;;;12.85;11.45;;;;;;;-0.72;100.00;95683.56;5030489;28;20025;-65
2023/11/27 04:59:13;;;;;;;13.52;12.10;;;;;;;-0.76;100.00;95696.75;5028579;28;20040;-64
2023/11/27 05:01:39;;;;;;;12.27;10.65;;;;;;;-0.81;100.00;95696.09;5026015;28;20130;-64
2023/11/27 05:04:04;;;;;;;11.68;9.65;;;;;;;-0.84;100.00;95696.25;5027733;28;20116;-64
2023/11/27 05:06:30;;;;;;;14.27;9.57;;;;;;;-0.85;100.00;95697.16;5025109;28;20149;-64
2023/11/27 05:08:55;;;;;;;10.68;9.63;;;;;;;-0.84;100.00;95693.66;5027975;28;20025;-64
2023/11/27 05:11:21;;;;;;;10.73;9.27;;;;;;;-0.83;100.00;95695.34;5030831;28;20057;-64
2023/11/27 05:13:50;;;;;;;14.27;10.38;;;;;;;-0.81;100.00;95706.44;5027285;28;20502;-64
2023/11/27 05:16:15;;;;;;;11.20;9.43;;;;;;;-0.83;100.00;95711.69;5026217;28;20026;-64
2023/11/27 05:18:45;;;;;;;13.20;9.88;;;;;;;-0.82;100.00;95712.53;5031010;28;20026;-64
2023/11/27 05:21:14;;;;;;;12.65;9.65;;;;;;;-0.85;100.00;95708.34;5031055;28;20498;-65
2023/11/27 05:23:43;;;;;;;14.68;9.88;;;;;;;-0.83;100.00;95710.84;5029514;28;20087;-64
2023/11/27 05:26:10;;;;;;;12.75;10.63;;;;;;;-0.82;100.00;95704.75;5025292;28;20700;-64
2023/11/27 05:28:36;;;;;;;12.57;10.85;;;;;;;-0.86;100.00;95711.84;5024734;28;20590;-64
2023/11/27 05:31:02;;;;;;;12.95;11.63;;;;;;;-0.85;100.00;95707.50;5020372;28;20053;-65
2023/11/27 05:33:27;;;;;;;12.25;10.73;;;;;;;-0.87;100.00;95700.66;5026003;28;20149;-64
2023/11/27 05:35:53;;;;;;;12.55;9.63;;;;;;;-0.89;100.00;95702.47;5028285;28;20034;-64
2023/11/27 05:38:19;;;;;;;12.18;9.27;;;;;;;-0.90;100.00;95700.81;5022676;28;20088;-64
2023/11/27 05:40:44;;;;;;;10.43;9.38;;;;;;;-0.85;100.00;95707.50;5029648;28;20048;-64
2023/11/27 05:43:11;;;;;;;14.35;9.73;;;;;;;-0.84;100.00;95704.84;5030606;28;20033;-64
2023/11/27 05:45:37;;;;;;;13.35;9.65;;;;;;;-0.81;100.00;95701.25;5027102;28;20483;-64
2023/11/27 05:48:05;;;;;;;11.73;9.85;;;;;;;-0.83;100.00;95706.53;5023664;28;20103;-64
2023/11/27 05:50:31;;;;;;;14.48;10.73;;;;;;;-0.84;100.00;95689.34;5024074;28;20526;-64
2023/11/27 05:52:57;;;;;;;16.88;12.52;;;;;;;-0.81;100.00;95688.34;5029562;28;20045;-64
2023/11/27 05:55:23;;;;;;;13.52;12.13;;;;;;;-0.81;100.00;95688.34;5030545;28;20120;-64
2023/11/27 05:57:48;;;;;;;12.60;10.93;;;;;;;-0.79;100.00;95699.44;5043637;28;20017;-64
2023/11/27 06:00:14;;;;;;;14.48;12.10;;;;;;;-0.81;100.00;95696.94;5032567;28;20541;-64
2023/11/27 06:02:39;;;;;;;20.00;13.60;;;;;;;-0.83;100.00;95690.16;5044667;28;20030;-64
2023/11/27 06:05:05;;;;;;;14.80;12.98;;;;;;;-0.80;100.00;95688.28;5028182;28;20034;-64
2023/11/27 06:07:31;;;;;;;13.00;11.63;;;;;;;-0.69;100.00;95684.34;5029243;28;20041;-65
2023/11/27 06:09:56;;;;;;;17.92;13.50;;;;;;;-0.78;100.00;95685.59;5024975;28;20041;-65
2023/11/27 06:12:23;;;;;;;16.42;13.85;;;;;;;-0.84;100.00;95680.72;5032060;28;20083;-64
2023/11/27 06:14:49;;;;;;;16.70;13.02;;;;;;;-0.83;100.00;95682.41;5029064;28;20108;-64
2023/11/27 06:17:15;;;;;;;19.73;14.70;;;;;;;-0.82;100.00;95682.34;5025540;28;20057;-64
2023/11/27 06:19:40;;;;;;;33.80;16.00;;;;;;;-0.80;100.00;95690.88;5028070;28;20044;-63
2023/11/27 06:22:06;;;;;;;25.60;19.25;;;;;;;-0.79;100.00;95682.19;5016372;28;20041;-64
2023/11/27 06:24:31;;;;;;;21.08;16.38;;;;;;;-0.79;100.00;95671.84;5029256;28;20045;-63
2023/11/27 06:26:56;;;;;;;36.72;24.25;;;;;;;-0.82;100.00;95671.16;5030279;28;20044;-64
2023/11/27 06:29:22;;;;;;;34.45;23.08;;;;;;;-0.82;100.00;95665.97;5020025;28;20026;-64
2023/11/27 06:31:48;;;;;;;38.88;27.42;;;;;;;-0.79;100.00;95666.69;5026902;28;20021;-64
2023/11/27 06:34:14;;;;;;;28.42;22.23;;;;;;;-0.78;100.00;95668.38;5024589;28;20025;-63
2023/11/27 06:36:39;;;;;;;30.75;22.77;;;;;;;-0.76;100.00;95669.13;5027671;28;20075;-64
2023/11/27 06:39:04;;;;;;;23.92;20.17;;;;;;;-0.76;100.00;95666.53;5025812;28;20053;-64
2023/11/27 06:41:33;;;;;;;23.13;17.95;;;;;;;-0.74;100.00;95669.06;5021423;28;20037;-64
2023/11/27 06:43:59;;;;;;;97.25;59.58;;;;;;;-0.70;100.00;95665.41;5026167;28;20033;-64
2023/11/27 06:46:24;;;;;;;101.03;58.13;;;;;;;-0.69;100.00;95661.91;5025430;28;20034;-62
2023/11/27 06:48:50;;;;;;;69.28;44.92;;;;;;;-0.67;100.00;95662.69;5022487;28;20052;-63
2023/11/27 06:51:15;;;;;;;48.97;30.90;;;;;;;-0.69;100.00;95656.75;5025868;28;20028;-64
2023/11/27 06:53:41;;;;;;;44.78;31.15;;;;;;;-0.73;100.00;95656.03;5026558;28;20052;-62
2023/11/27 06:56:08;;;;;;;43.55;30.83;;;;;;;-0.72;100.00;95659.47;5024333;28;20053;-62
2023/11/27 06:58:34;;;;;;;40.38;26.42;;;;;;;-0.69;100.00;95658.47;5017914;28;20060;-63
2023/11/27 07:00:59;;;;;;;24.77;20.00;;;;;;;-0.45;100.00;95656.47;5026756;28;20460;-62
2023/11/27 07:03:25;;;;;;;30.67;19.17;;;;;;;-0.52;100.00;95658.50;5025730;28;20079;-61
2023/11/27 07:05:50;;;;;;;36.97;22.02;;;;;;;-0.50;100.00;95658.44;5022773;28;20097;-61
2023/11/27 07:08:17;;;;;;;36.83;23.20;;;;;;;-0.48;100.00;95661.78;5028387;28;20049;-62
2023/11/27 07:10:42;;;;;;;50.47;28.95;;;;;;;-0.47;100.00;95660.88;5026257;28;20052;-62
2023/11/27 07:13:08;;;;;;;44.63;28.00;;;;;;;-0.46;100.00;95659.97;5029481;28;20021;-64
2023/11/27 07:15:33;;;;;;;56.70;30.15;;;;;;;-0.45;100.00;95654.69;5030674;28;20033;-61
2023/11/27 07:18:00;;;;;;;62.03;32.22;;;;;;;-0.45;100.00;95654.69;5031177;28;20060;-62
2023/11/27 07:20:25;;;;;;;64.57;34.40;;;;;;;-0.41;100.00;95657.97;5026951;28;20029;-61
2023/11/27 07:22:51;;;;;;;71.70;34.63;;;;;;;-0.39;100.00;95655.31;5031352;28;20188;-62
2023/11/27 07:25:16;;;;;;;46.00;29.88;;;;;;;-0.38;100.00;95665.59;5028981;28;20121;-62
2023/11/27 07:27:49;;;;;;;53.88;32.95;;;;;;;-0.38;100.00;95654.41;5020895;28;20513;-62
2023/11/27 07:30:17;;;;;;;68.43;38.20;;;;;;;-0.39;100.00;95652.75;5023761;28;20026;-62
2023/11/27 07:32:46;;;;;;;105.07;48.30;;;;;;;-0.38;100.00;95655.25;5036286;28;20132;-62
2023/11/27 07:35:12;;;;;;;97.80;43.25;;;;;;;-0.38;100.00;95654.41;5024454;28;20025;-62
2023/11/27 07:37:38;;;;;;;85.30;36.72;;;;;;;-0.18;100.00;95649.09;5026465;28;20017;-62
2023/11/27 07:40:09;;;;;;;64.50;35.65;;;;;;;-0.26;100.00;95634.84;5021994;28;20026;-62
2023/11/27 07:42:34;;;;;;;94.20;38.65;;;;;;;-0.24;100.00;95635.63;5020811;28;20096;-62
2023/11/27 07:45:00;;;;;;;51.47;33.47;;;;;;;-0.19;100.00;95639.66;5019131;28;20021;-62
2023/11/27 07:47:25;;;;;;;47.10;33.35;;;;;;;-0.12;100.00;95639.34;5021879;28;20030;-62
2023/11/27 07:49:51;;;;;;;52.28;37.83;;;;;;;-0.03;100.00;95650.06;5030947;28;20018;-62
2023/11/27 07:52:16;;;;;;;43.38;28.17;;;;;;;0.03;100.00;95643.75;5026455;28;20491;-62
2023/11/27 07:54:43;;;;;;;37.05;25.25;;;;;;;0.05;100.00;95649.66;5019543;28;20025;-62
2023/11/27 07:57:08;;;;;;;46.95;26.55;;;;;;;0.03;100.00;95659.28;5025464;28;20040;-62
2023/11/27 07:59:33;;;;;;;45.85;28.08;;;;;;;0.06;100.00;95660.84;5021704;28;20017;-62
2023/11/27 08:02:00;;;;;;;59.63;26.60;;;;;;;0.13;100.00;95660.47;5025096;28;20026;-62
2023/11/27 08:04:25;;;;;;;49.72;27.67;;;;;;;0.22;100.00;95651.38;5024463;28;20029;-63
2023/11/27 08:06:51;;;;;;;47.63;26.40;;;;;;;0.29;100.00;95654.50;5019816;28;20079;-63
2023/11/27 08:09:17;;;;;;;41.03;26.02;;;;;;;0.34;100.00;95662.03;5023612;28;20418;-63
2023/11/27 08:11:42;;;;;;;41.30;21.83;;;;;;;0.41;100.00;95658.19;5024998;28;20026;-62
2023/11/27 08:14:10;;;;;;;28.48;18.98;;;;;;;0.50;100.00;95660.28;5019329;28;20030;-63
2023/11/27 08:16:35;;;;;;;26.55;17.50;;;;;;;0.56;100.00;95649.63;5022431;28;20030;-62
2023/11/27 08:19:01;;;;;;;26.60;18.10;;;;;;;0.76;100.00;95655.47;5025092;28;20032;-63
2023/11/27 08:21:26;;;;;;;26.92;19.67;;;;;;;0.87;100.00;95647.13;5023285;28;20058;-63
2023/11/27 08:23:51;;;;;;;34.90;27.20;;;;;;;0.96;100.00;95643.19;5023663;28;20022;-63
2023/11/27 08:26:17;;;;;;;36.95;27.30;;;;;;;0.95;100.00;95644.97;5018127;28;20418;-62
2023/11/27 08:28:43;;;;;;;42.13;28.08;;;;;;;0.97;100.00;95650.03;5025055;28;20030;-63
2023/11/27 08:31:09;;;;;;;23.40;17.98;;;;;;;0.94;100.00;95653.66;5029417;28;20036;-62
2023/11/27 08:33:34;;;;;;;17.23;14.70;;;;;;;0.95;100.00;95646.69;5025695;28;20036;-62
2023/11/27 08:36:03;;;;;;;17.98;13.75;;;;;;;0.99;100.00;95643.88;5022450;28;20036;-63
2023/11/27 08:38:30;;;;;;;16.42;13.73;;;;;;;1.10;100.00;95635.50;5022235;28;20461;-64
2023/11/27 08:40:56;;;;;;;13.95;12.45;;;;;;;1.11;100.00;95626.78;5027283;28;20063;-63
2023/11/27 08:43:22;;;;;;;16.17;12.65;;;;;;;1.22;100.00;95630.56;5020462;28;20013;-65
2023/11/27 08:45:48;;;;;;;12.73;11.38;;;;;;;1.36;100.00;95624.59;5022228;28;20556;-64
2023/11/27 08:48:15;;;;;;;14.63;10.13;;;;;;;1.40;100.00;95618.28;5019920;28;20588;-65
2023/11/27 08:50:41;;;;;;;14.40;9.85;;;;;;;1.55;100.00;95603.59;5025719;28;20060;-64
2023/11/27 08:53:09;;;;;;;15.05;9.85;;;;;;;1.86;100.00;95592.25;5023073;28;20081;-63
2023/11/27 08:55:34;;;;;;;19.17;10.60;;;;;;;1.76;100.00;95569.53;5022425;28;20026;-64
2023/11/27 08:58:03;;;;;;;18.40;13.27;;;;;;;1.88;100.00;95563.63;5030873;28;20032;-63
2023/11/27 09:00:32;;;;;;;15.82;12.45;;;;;;;1.83;100.00;95563.03;5028795;28;20561;-64
2023/11/27 09:02:59;;;;;;;13.10;10.45;;;;;;;1.77;100.00;95551.28;5022399;28;20140;-63
2023/11/27 09:05:31;;;;;;;12.25;9.38;;;;;;;1.85;100.00;95545.59;5031611;28;21365;-64
2023/11/27 09:08:00;;;;;;;16.42;12.25;;;;;;;2.06;100.00;95534.84;5027279;28;20662;-64
2023/11/27 09:10:25;;;;;;;18.83;12.27;;;;;;;2.15;100.00;95532.53;5025846;28;20034;-63
2023/11/27 09:12:51;;;;;;;14.85;10.00;;;;;;;2.33;100.00;95523.72;5026345;28;20036;-64
2023/11/27 09:15:17;;;;;;;14.30;9.38;;;;;;;2.36;100.00;95516.53;5023628;28;20025;-64
2023/11/27 09:17:44;;;;;;;10.88;8.23;;;;;;;2.61;100.00;95508.97;5026730;28;20028;-64
2023/11/27 09:20:11;;;;;;;14.10;7.93;;;;;;;2.64;100.00;95504.41;5023309;28;20026;-64
2023/11/27 09:22:37;;;;;;;11.00;7.13;;;;;;;2.63;100.00;95492.34;5025977;28;20037;-63
2023/11/27 09:25:07;;;;;;;7.15;5.85;;;;;;;2.68;100.00;95484.25;5021322;28;20394;-66
2023/11/27 09:27:33;;;;;;;7.22;6.57;;;;;;;2.58;100.00;95478.81;5022757;28;20033;-64
2023/11/27 09:29:59;;;;;;;11.35;6.88;;;;;;;2.49;100.00;95474.22;5028332;28;20506;-63
2023/11/27 09:32:26;;;;;;;9.38;7.65;;;;;;;2.40;100.00;95479.03;5029663;28;20029;-65
2023/11/27 09:34:52;;;;;;;9.70;8.10;;;;;;;2.42;100.00;95494.53;5029428;28;20029;-63
2023/11/27 09:37:17;;;;;;;12.10;8.52;;;;;;;2.42;100.00;95497.97;5030517;28;20083;-64
2023/11/27 09:39:43;;;;;;;13.30;9.45;;;;;;;2.48;100.00;95501.94;5041835;28;20034;-64
2023/11/27 09:42:08;;;;;;;11.05;9.65;;;;;;;2.50;100.00;95497.47;5028848;28;20021;-64
2023/11/27 09:44:36;;;;;;;12.18;9.05;;;;;;;2.57;100.00;95490.13;5028352;28;20099;-65
2023/11/27 09:47:02;;;;;;;12.38;9.18;;;;;;;2.60;100.00;95491.72;5021342;28;20025;-64
2023/11/27 09:49:28;;;;;;;13.57;9.82;;;;;;;2.65;100.00;95490.50;5028432;28;20049;-63
2023/11/27 09:51:59;;;;;;;11.15;9.68;;;;;;;2.69;100.00;95486.75;5021850;28;20045;-64
2023/11/27 09:54:28;;;;;;;15.52;12.35;;;;;;;2.78;100.00;95481.91;5024821;28;20466;-64
2023/11/27 09:56:54;;;;;;;18.17;13.57;;;;;;;2.76;100.00;95474.19;5023400;28;20030;-64
2023/11/27 09:59:20;;;;;;;19.40;14.75;;;;;;;2.78;100.00;95454.13;5021459;28;20508;-64
2023/11/27 10:01:47;;;;;;;15.85;11.80;;;;;;;2.92;100.00;95453.25;5025415;28;20022;-63
2023/11/27 10:04:13;;;;;;;31.65;18.35;;;;;;;2.99;100.00;95449.28;5029965;28;20595;-63
2023/11/27 10:06:42;;;;;;;25.58;16.08;;;;;;;3.04;100.00;95456.78;5025973;28;20057;-64
2023/11/27 10:09:08;;;;;;;20.08;13.85;;;;;;;3.11;100.00;95441.63;5019842;28;20044;-64
2023/11/27 10:11:35;;;;;;;14.13;10.40;;;;;;;3.13;100.00;95435.34;5021006;28;20030;-64
2023/11/27 10:14:04;;;;;;;13.20;8.95;;;;;;;3.20;100.00;95416.72;5028413;28;20372;-63
2023/11/27 10:16:31;;;;;;;21.50;13.55;;;;;;;3.33;100.00;95401.16;5027216;28;20031;-63
2023/11/27 10:19:07;;;;;;;17.58;12.75;;;;;;;3.18;100.00;95403.00;5026150;28;20045;-64
2023/11/27 10:21:34;;;;;;;15.02;11.27;;;;;;;3.56;100.00;95394.34;5019699;28;20022;-64
2023/11/27 10:24:08;;;;;;;15.57;9.98;;;;;;;3.22;100.00;95389.69;5026422;28;20033;-63
2023/11/27 10:26:34;;;;;;;14.10;8.90;;;;;;;3.13;100.00;95385.13;5027500;28;20065;-64
2023/11/27 10:28:59;;;;;;;14.38;7.95;;;;;;;3.15;100.00;95384.06;5022892;28;20029;-63
2023/11/27 10:31:26;;;;;;;9.88;7.63;;;;;;;2.94;100.00;95382.91;5019186;28;20022;-64
2023/11/27 10:33:55;;;;;;;8.95;8.05;;;;;;;2.95;100.00;95384.56;5021746;28;20111;-63
2023/11/27 10:36:23;;;;;;;10.50;8.25;;;;;;;2.70;100.00;95394.84;5028830;28;20032;-63
2023/11/27 10:39:15;;;;;;;9.88;8.15;;;;;;;2.71;100.00;95398.25;5025024;28;20506;-63
2023/11/27 10:41:44;;;;;;;9.18;8.27;;;;;;;2.69;100.00;95381.94;5023324;28;20112;-63
2023/11/27 10:44:12;;;;;;;10.77;9.05;;;;;;;2.60;100.00;95388.56;5026705;28;20037;-64
2023/11/27 10:46:40;;;;;;;8.30;7.43;;;;;;;2.58;100.00;95385.22;5026199;28;20394;-64
2023/11/27 10:49:07;;;;;;;10.45;7.68;;;;;;;2.58;100.00;95386.09;5021695;28;20075;-63
2023/11/27 10:51:33;;;;;;;11.23;7.25;;;;;;;2.70;100.00;95373.19;5030994;28;20163;-64
2023/11/27 10:54:03;;;;;;;8.82;7.68;;;;;;;2.80;100.00;95352.63;5023430;28;20527;-63
2023/11/27 10:56:33;;;;;;;11.10;6.82;;;;;;;2.83;100.00;95347.22;5024006;28;20030;-64
2023/11/27 10:59:05;;;;;;;11.18;8.07;;;;;;;3.08;100.00;95335.16;5028911;28;20029;-63
2023/11/27 11:01:39;;;;;;;12.40;7.47;;;;;;;2.98;100.00;95330.59;5022578;28;20029;-64
2023/11/27 11:04:10;;;;;;;11.32;8.13;;;;;;;2.94;100.00;95317.88;5024722;28;20029;-63
2023/11/27 11:06:45;;;;;;;11.43;6.95;;;;;;;2.88;100.00;95315.72;5018629;28;20096;-63
2023/11/27 11:09:14;;;;;;;8.52;6.47;;;;;;;2.82;100.00;95325.59;5027499;28;20088;-64
2023/11/27 11:11:49;;;;;;;6.95;6.20;;;;;;;2.76;100.00;95325.97;5026300;28;20025;-63